createdAt,value
2022-09-17T00:01:43.914Z,16.00
2022-09-17T00:04:12.449Z,15.95
2022-09-17T00:06:40.518Z,15.93
2022-09-17T00:09:12.218Z,15.91
2022-09-17T00:11:43.025Z,15.87
2022-09-17T00:14:17.020Z,15.85
2022-09-17T00:16:47.582Z,15.69
2022-09-17T00:19:23.054Z,15.72
2022-09-17T00:21:52.875Z,15.71
2022-09-17T00:24:24.169Z,15.74
2022-09-17T00:26:54.815Z,15.71
2022-09-17T00:29:23.400Z,15.79
2022-09-17T00:31:51.771Z,15.80
2022-09-17T00:34:19.919Z,15.77
2022-09-17T00:36:49.214Z,15.77
2022-09-17T00:39:17.889Z,15.79
2022-09-17T00:41:46.901Z,15.83
2022-09-17T00:44:36.906Z,15.81
2022-09-17T00:47:05.867Z,15.78
2022-09-17T00:49:34.827Z,15.76
2022-09-17T00:52:13.370Z,15.75
2022-09-17T00:54:46.578Z,15.70
2022-09-17T00:57:14.876Z,15.65
2022-09-17T00:59:42.996Z,15.57
2022-09-17T01:02:11.457Z,15.49
2022-09-17T01:04:39.680Z,15.33
2022-09-17T01:07:42.351Z,15.26
2022-09-17T01:10:38.961Z,15.19
2022-09-17T01:13:13.208Z,15.16
2022-09-17T01:15:55.317Z,15.16
2022-09-17T01:19:00.671Z,15.06
2022-09-17T01:22:03.737Z,15.02
2022-09-17T01:24:52.759Z,14.85
2022-09-17T01:27:51.080Z,14.75
2022-09-17T01:30:43.260Z,14.61
2022-09-17T01:33:46.626Z,14.44
2022-09-17T01:36:26.477Z,14.32
2022-09-17T01:39:11.279Z,14.19
2022-09-17T01:41:42.318Z,14.15
2022-09-17T01:44:31.658Z,14.13
2022-09-17T01:47:21.623Z,14.13
2022-09-17T01:49:52.975Z,14.13
2022-09-17T01:52:23.494Z,14.17
2022-09-17T01:54:58.215Z,14.12
2022-09-17T01:57:54.244Z,14.06
2022-09-17T02:00:23.518Z,14.04
2022-09-17T02:02:54.870Z,14.04
2022-09-17T02:05:35.244Z,14.04
2022-09-17T02:08:15.170Z,14.10
2022-09-17T02:10:46.668Z,14.09
2022-09-17T02:13:21.170Z,14.06
2022-09-17T02:16:10.662Z,14.07
2022-09-17T02:18:47.948Z,14.00
2022-09-17T02:21:19.457Z,14.03
2022-09-17T02:24:12.301Z,14.05
2022-09-17T02:26:45.999Z,14.10
2022-09-17T02:29:24.846Z,14.08
2022-09-17T02:31:54.766Z,14.11
2022-09-17T02:34:23.592Z,14.07
2022-09-17T02:36:52.796Z,14.04
2022-09-17T02:39:20.922Z,14.09
2022-09-17T02:42:28.045Z,14.09
2022-09-17T02:45:17.297Z,13.95
2022-09-17T02:48:09.017Z,14.00
2022-09-17T02:51:11.484Z,13.91
2022-09-17T02:54:01.214Z,13.82
2022-09-17T02:56:52.226Z,13.71
2022-09-17T02:59:44.057Z,13.65
2022-09-17T03:02:28.327Z,13.55
2022-09-17T03:04:58.077Z,13.56
2022-09-17T03:07:29.316Z,13.50
2022-09-17T03:09:57.532Z,13.48
2022-09-17T03:12:27.036Z,13.41
2022-09-17T03:14:55.293Z,13.38
2022-09-17T03:17:23.494Z,13.33
2022-09-17T03:19:52.157Z,13.23
2022-09-17T03:22:21.766Z,13.09
2022-09-17T03:24:50.120Z,13.03
2022-09-17T03:27:21.198Z,13.02
2022-09-17T03:29:49.331Z,13.01
2022-09-17T03:32:17.777Z,13.01
2022-09-17T03:34:47.014Z,12.99
2022-09-17T03:37:16.090Z,12.92
2022-09-17T03:39:44.861Z,12.86
2022-09-17T03:42:12.885Z,12.80
2022-09-17T03:44:45.211Z,12.78
2022-09-17T03:47:13.638Z,12.77
2022-09-17T03:49:41.717Z,12.73
2022-09-17T03:52:09.858Z,12.71
2022-09-17T03:54:38.113Z,12.67
2022-09-17T03:57:06.644Z,12.71
2022-09-17T03:59:34.635Z,12.71
2022-09-17T04:02:02.866Z,12.69
2022-09-17T04:04:31.555Z,12.64
2022-09-17T04:06:59.863Z,12.54
2022-09-17T04:09:28.127Z,12.56
2022-09-17T04:11:56.531Z,12.54
2022-09-17T04:14:24.951Z,12.51
2022-09-17T04:16:53.028Z,12.50
2022-09-17T04:19:22.007Z,12.45
2022-09-17T04:21:50.039Z,12.47
2022-09-17T04:24:18.861Z,12.48
2022-09-17T04:26:47.683Z,12.54
2022-09-17T04:29:16.061Z,12.48
2022-09-17T04:31:44.624Z,12.50
2022-09-17T04:34:12.678Z,12.45
2022-09-17T04:36:40.790Z,12.46
2022-09-17T04:39:09.714Z,12.47
2022-09-17T04:41:37.883Z,12.48
2022-09-17T04:44:06.799Z,12.45
2022-09-17T04:46:35.029Z,12.41
2022-09-17T04:49:03.400Z,12.38
2022-09-17T04:51:34.424Z,12.38
2022-09-17T04:54:02.977Z,12.36
2022-09-17T04:56:31.103Z,12.35
2022-09-17T04:58:59.346Z,12.32
2022-09-17T05:01:28.225Z,12.34
2022-09-17T05:03:57.735Z,12.35
2022-09-17T05:06:25.873Z,12.35
2022-09-17T05:08:53.977Z,12.36
2022-09-17T05:11:22.226Z,12.38
2022-09-17T05:13:50.739Z,12.36
2022-09-17T05:16:19.762Z,12.39
2022-09-17T05:18:49.690Z,12.36
2022-09-17T05:21:19.419Z,12.37
2022-09-17T05:23:48.274Z,12.34
2022-09-17T05:26:16.682Z,12.33
2022-09-17T05:28:44.682Z,12.36
2022-09-17T05:31:13.831Z,12.35
2022-09-17T05:33:42.670Z,12.36
2022-09-17T05:36:10.791Z,12.40
2022-09-17T05:38:38.919Z,12.41
2022-09-17T05:41:07.450Z,12.41
2022-09-17T05:43:35.579Z,12.41
2022-09-17T05:46:06.104Z,12.41
2022-09-17T05:48:34.762Z,12.42
2022-09-17T05:51:03.473Z,12.42
2022-09-17T05:53:31.606Z,12.43
2022-09-17T05:56:00.279Z,12.40
2022-09-17T05:58:29.281Z,12.38
2022-09-17T06:01:01.716Z,12.35
2022-09-17T06:03:29.963Z,12.34
2022-09-17T06:06:00.237Z,12.33
2022-09-17T06:08:29.666Z,12.29
2022-09-17T06:11:02.238Z,12.33
2022-09-17T06:13:31.087Z,12.34
2022-09-17T06:16:00.515Z,12.34
2022-09-17T06:18:31.165Z,12.36
2022-09-17T06:21:01.425Z,12.38
2022-09-17T06:23:37.325Z,12.42
2022-09-17T06:26:08.785Z,12.42
2022-09-17T06:28:41.874Z,12.42
2022-09-17T06:31:12.995Z,12.44
2022-09-17T06:33:41.439Z,12.48
2022-09-17T06:36:13.958Z,12.46
2022-09-17T06:38:43.785Z,12.43
2022-09-17T06:41:15.157Z,12.49
2022-09-17T06:43:43.606Z,12.51
2022-09-17T06:46:12.556Z,12.54
2022-09-17T06:48:41.924Z,12.53
2022-09-17T06:51:13.015Z,12.50
2022-09-17T06:53:41.699Z,12.46
2022-09-17T06:56:10.438Z,12.43
2022-09-17T06:58:38.939Z,12.42
2022-09-17T07:01:08.598Z,12.32
2022-09-17T07:03:36.734Z,12.36
2022-09-17T07:06:10.087Z,12.33
2022-09-17T07:08:39.151Z,12.35
2022-09-17T07:11:08.383Z,12.31
2022-09-17T07:13:36.402Z,12.23
2022-09-17T07:16:05.811Z,12.24
2022-09-17T07:18:34.694Z,12.20
2022-09-17T07:21:06.370Z,12.13
2022-09-17T07:23:36.792Z,12.20
2022-09-17T07:26:12.346Z,12.20
2022-09-17T07:28:41.954Z,12.21
2022-09-17T07:31:15.812Z,12.28
2022-09-17T07:33:45.701Z,12.30
2022-09-17T07:36:18.242Z,12.31
2022-09-17T07:38:47.486Z,12.38
2022-09-17T07:41:17.686Z,12.39
2022-09-17T07:43:46.122Z,12.44
2022-09-17T07:46:18.803Z,12.49
2022-09-17T07:48:48.222Z,12.53
2022-09-17T07:51:24.866Z,12.59
2022-09-17T07:53:58.421Z,12.60
2022-09-17T07:56:28.149Z,12.65
2022-09-17T07:59:04.038Z,12.74
2022-09-17T08:01:34.412Z,12.80
2022-09-17T08:04:04.172Z,12.90
2022-09-17T08:06:36.370Z,13.09
2022-09-17T08:09:11.916Z,13.19
2022-09-17T08:11:56.820Z,13.31
2022-09-17T08:14:29.764Z,13.52
2022-09-17T08:16:58.231Z,13.61
2022-09-17T08:19:29.432Z,13.63
2022-09-17T08:21:57.588Z,13.70
2022-09-17T08:24:28.677Z,13.73
2022-09-17T08:26:57.498Z,13.75
2022-09-17T08:29:25.537Z,13.89
2022-09-17T08:31:53.663Z,13.83
2022-09-17T08:34:21.891Z,13.88
2022-09-17T08:36:49.909Z,13.84
2022-09-17T08:39:21.158Z,13.99
2022-09-17T08:42:19.778Z,14.04
2022-09-17T08:44:51.868Z,14.11
2022-09-17T08:47:25.377Z,14.15
2022-09-17T08:50:00.286Z,14.31
2022-09-17T08:52:34.497Z,14.24
2022-09-17T08:55:27.840Z,14.43
2022-09-17T08:58:35.314Z,14.43
2022-09-17T09:01:38.825Z,14.56
2022-09-17T09:04:24.004Z,14.57
2022-09-17T09:07:01.704Z,14.74
2022-09-17T09:09:54.881Z,14.79
2022-09-17T09:12:26.776Z,14.76
2022-09-17T09:15:01.512Z,14.74
2022-09-17T09:17:42.115Z,14.77
2022-09-17T09:20:22.910Z,14.83
2022-09-17T09:22:52.738Z,15.05
2022-09-17T09:25:29.661Z,15.05
2022-09-17T09:28:20.068Z,15.03
2022-09-17T09:30:49.135Z,15.07
2022-09-17T09:33:26.103Z,15.12
2022-09-17T09:35:54.183Z,15.22
2022-09-17T09:38:58.462Z,15.27
2022-09-17T09:41:29.899Z,15.46
2022-09-17T09:44:05.858Z,15.48
2022-09-17T09:47:04.112Z,15.65
2022-09-17T09:50:42.936Z,15.79
2022-09-17T09:53:25.277Z,15.79
2022-09-17T09:55:59.126Z,15.84
2022-09-17T09:58:36.090Z,15.81
2022-09-17T10:01:28.305Z,15.87
2022-09-17T10:03:59.163Z,16.01
2022-09-17T10:06:31.043Z,16.03
2022-09-17T10:09:01.895Z,16.11
2022-09-17T10:11:35.421Z,16.29
2022-09-17T10:14:21.781Z,16.58
2022-09-17T10:16:50.696Z,16.67
2022-09-17T10:19:25.857Z,16.56
2022-09-17T10:21:54.530Z,16.77
2022-09-17T10:24:34.865Z,16.79
2022-09-17T10:27:14.841Z,16.55
2022-09-17T10:29:49.406Z,16.69
2022-09-17T10:32:22.970Z,16.82
2022-09-17T10:35:05.066Z,17.09
2022-09-17T10:37:43.899Z,17.25
2022-09-17T10:40:18.780Z,17.53
2022-09-17T10:42:49.211Z,17.76
2022-09-17T10:45:32.004Z,17.96
2022-09-17T10:48:02.062Z,18.08
2022-09-17T10:50:35.960Z,17.95
2022-09-17T10:53:15.763Z,18.10
2022-09-17T10:56:05.258Z,18.13
2022-09-17T10:59:02.595Z,17.92
2022-09-17T11:02:25.018Z,18.03
2022-09-17T11:05:14.968Z,17.66
2022-09-17T11:07:54.531Z,17.48
2022-09-17T11:10:49.780Z,17.42
2022-09-17T11:13:33.214Z,17.46
2022-09-17T11:16:27.288Z,17.29
2022-09-17T11:19:15.438Z,17.18
2022-09-17T11:22:10.684Z,17.04
2022-09-17T11:25:16.198Z,17.13
2022-09-17T11:28:10.269Z,17.22
2022-09-17T11:31:03.409Z,17.29
2022-09-17T11:33:57.216Z,17.12
2022-09-17T11:36:31.574Z,17.31
2022-09-17T11:39:11.443Z,17.30
2022-09-17T11:41:47.405Z,17.34
2022-09-17T11:44:45.565Z,17.44
2022-09-17T11:47:19.630Z,17.42
2022-09-17T11:50:00.249Z,17.61
2022-09-17T11:52:36.208Z,17.94
2022-09-17T11:55:19.326Z,18.06
2022-09-17T11:57:52.259Z,18.13
2022-09-17T12:00:25.691Z,18.38
2022-09-17T12:03:19.119Z,18.70
2022-09-17T12:05:57.550Z,18.55
2022-09-17T12:08:51.866Z,18.29
2022-09-17T12:11:23.709Z,18.35
2022-09-17T12:14:03.026Z,18.52
2022-09-17T12:16:37.958Z,18.34
2022-09-17T12:19:28.810Z,18.22
2022-09-17T12:22:04.964Z,18.14
2022-09-17T12:24:34.400Z,18.07
2022-09-17T12:27:08.663Z,18.21
2022-09-17T12:29:59.568Z,18.07
2022-09-17T12:32:38.730Z,18.11
2022-09-17T12:35:59.709Z,18.23
2022-09-17T12:38:57.413Z,18.00
2022-09-17T12:41:48.213Z,17.92
2022-09-17T12:44:38.048Z,18.09
2022-09-17T12:47:29.152Z,18.12
2022-09-17T12:50:19.371Z,18.05
2022-09-17T12:53:18.750Z,17.88
2022-09-17T12:55:47.451Z,18.00
2022-09-17T12:58:42.391Z,17.99
2022-09-17T13:01:33.528Z,17.98
2022-09-17T13:04:17.122Z,17.94
2022-09-17T13:07:05.148Z,18.07
2022-09-17T13:10:04.892Z,17.91
2022-09-17T13:13:02.754Z,17.94
2022-09-17T13:16:01.992Z,18.18
2022-09-17T13:19:15.180Z,18.36
2022-09-17T13:21:56.866Z,18.22
2022-09-17T13:24:31.376Z,18.19
2022-09-17T13:27:02.997Z,18.24
2022-09-17T13:29:55.846Z,18.18
2022-09-17T13:32:33.980Z,17.99
2022-09-17T13:35:15.308Z,17.81
2022-09-17T13:37:52.920Z,17.86
2022-09-17T13:40:29.611Z,17.73
2022-09-17T13:43:09.047Z,17.64
2022-09-17T13:45:59.056Z,17.59
2022-09-17T13:48:31.997Z,17.53
2022-09-17T13:51:49.037Z,17.42
2022-09-17T13:54:19.595Z,17.31
2022-09-17T13:57:09.973Z,17.18
2022-09-17T13:59:38.926Z,17.22
2022-09-17T14:02:16.903Z,17.12
2022-09-17T14:04:46.901Z,17.06
2022-09-17T14:07:21.884Z,17.16
2022-09-17T14:10:26.035Z,17.18
2022-09-17T14:13:00.974Z,17.17
2022-09-17T14:15:40.911Z,17.18
2022-09-17T14:18:28.674Z,17.04
2022-09-17T14:21:08.629Z,17.04
2022-09-17T14:23:47.591Z,17.11
2022-09-17T14:26:34.087Z,17.15
2022-09-17T14:29:34.591Z,17.08
2022-09-17T14:32:07.367Z,17.06
2022-09-17T14:34:36.797Z,17.06
2022-09-17T14:37:05.018Z,16.98
2022-09-17T14:39:40.376Z,17.00
2022-09-17T14:42:27.051Z,16.88
2022-09-17T14:45:00.441Z,16.81
2022-09-17T14:47:30.142Z,16.79
2022-09-17T14:50:19.879Z,16.75
2022-09-17T14:52:54.015Z,16.77
2022-09-17T14:55:26.764Z,16.81
2022-09-17T14:57:57.469Z,16.79
2022-09-17T15:00:31.781Z,16.78
2022-09-17T15:03:01.863Z,16.67
2022-09-17T15:05:33.309Z,16.70
2022-09-17T15:08:16.040Z,16.71
2022-09-17T15:11:02.186Z,16.71
2022-09-17T15:13:36.291Z,16.72
2022-09-17T15:16:16.153Z,16.76
2022-09-17T15:18:49.552Z,16.81
2022-09-17T15:21:30.043Z,16.86
2022-09-17T15:24:43.928Z,16.80
2022-09-17T15:27:13.996Z,16.64
2022-09-17T15:29:46.986Z,16.72
2022-09-17T15:32:15.758Z,16.75
2022-09-17T15:34:43.978Z,16.81
2022-09-17T15:37:15.164Z,16.86
2022-09-17T15:39:51.100Z,16.82
2022-09-17T15:42:29.246Z,16.79
2022-09-17T15:45:22.468Z,16.80
2022-09-17T15:47:56.361Z,16.76
2022-09-17T15:50:27.494Z,16.60
2022-09-17T15:53:10.802Z,16.43
2022-09-17T15:55:45.995Z,16.43
2022-09-17T15:58:51.417Z,16.42
2022-09-17T16:01:40.948Z,16.38
2022-09-17T16:04:25.899Z,16.38
2022-09-17T16:07:01.933Z,16.33
2022-09-17T16:09:49.143Z,16.29
2022-09-17T16:12:25.253Z,16.21
2022-09-17T16:14:57.058Z,16.16
2022-09-17T16:17:29.636Z,16.14
2022-09-17T16:20:00.340Z,16.09
2022-09-17T16:22:36.724Z,16.01
2022-09-17T16:25:06.170Z,15.95
2022-09-17T16:28:19.764Z,15.88
2022-09-17T16:30:52.155Z,15.85
2022-09-17T16:33:21.652Z,15.78
2022-09-17T16:36:01.025Z,15.80
2022-09-17T16:38:32.750Z,15.72
2022-09-17T16:41:05.801Z,15.70
2022-09-17T16:43:35.623Z,15.63
2022-09-17T16:46:07.985Z,15.60
2022-09-17T16:48:41.010Z,15.52
2022-09-17T16:51:13.396Z,15.49
2022-09-17T16:53:45.057Z,15.45
2022-09-17T16:56:15.521Z,15.43
2022-09-17T16:58:49.556Z,15.44
2022-09-17T17:01:18.678Z,15.41
2022-09-17T17:03:50.990Z,15.41
2022-09-17T17:06:23.290Z,15.41
2022-09-17T17:08:52.369Z,15.42
2022-09-17T17:11:23.977Z,15.42
2022-09-17T17:13:52.157Z,15.39
2022-09-17T17:16:20.280Z,15.35
2022-09-17T17:18:49.171Z,15.31
2022-09-17T17:21:17.493Z,15.33
2022-09-17T17:23:48.010Z,15.34
2022-09-17T17:26:17.078Z,15.34
2022-09-17T17:28:45.246Z,15.35
2022-09-17T17:31:13.740Z,15.32
2022-09-17T17:33:42.007Z,15.34
2022-09-17T17:36:11.717Z,15.35
2022-09-17T17:38:40.428Z,15.35
2022-09-17T17:41:11.391Z,15.29
2022-09-17T17:43:39.720Z,15.27
2022-09-17T17:46:13.107Z,15.29
2022-09-17T17:48:42.058Z,15.29
2022-09-17T17:51:10.912Z,15.24
2022-09-17T17:53:42.871Z,15.26
2022-09-17T17:56:12.432Z,15.23
2022-09-17T17:58:41.125Z,15.24
2022-09-17T18:01:23.636Z,15.19
2022-09-17T18:04:00.524Z,15.20
2022-09-17T18:06:30.605Z,15.14
2022-09-17T18:09:00.510Z,15.15
2022-09-17T18:11:30.289Z,15.12
2022-09-17T18:14:01.245Z,15.02
2022-09-17T18:16:29.817Z,14.96
2022-09-17T18:18:58.736Z,14.92
2022-09-17T18:21:27.821Z,14.89
2022-09-17T18:23:56.562Z,14.80
2022-09-17T18:26:28.375Z,14.87
2022-09-17T18:28:56.647Z,14.81
2022-09-17T18:31:33.618Z,14.79
2022-09-17T18:34:12.735Z,14.69
2022-09-17T18:36:46.502Z,14.62
2022-09-17T18:42:11.594Z,14.58
2022-09-17T18:44:40.607Z,14.56
2022-09-17T18:47:09.476Z,14.49
2022-09-17T18:49:38.985Z,14.45
2022-09-17T18:52:07.175Z,14.42
2022-09-17T18:54:35.235Z,14.32
2022-09-17T18:57:03.447Z,14.16
2022-09-17T18:59:33.388Z,14.02
2022-09-17T19:02:03.011Z,13.94
2022-09-17T19:04:31.550Z,13.87
2022-09-17T19:06:59.712Z,13.70
2022-09-17T19:09:28.869Z,13.62
2022-09-17T19:11:56.885Z,13.46
2022-09-17T19:14:26.116Z,13.43
2022-09-17T19:16:55.355Z,13.43
2022-09-17T19:19:24.828Z,13.40
2022-09-17T19:21:53.095Z,13.38
2022-09-17T19:24:22.958Z,13.29
2022-09-17T19:26:51.499Z,13.28
2022-09-17T19:29:19.907Z,13.30
2022-09-17T19:31:48.711Z,13.30
2022-09-17T19:34:17.001Z,13.21
2022-09-17T19:36:45.328Z,13.19
2022-09-17T19:39:16.380Z,13.22
2022-09-17T19:41:44.478Z,13.13
2022-09-17T19:44:13.798Z,13.09
2022-09-17T19:46:42.236Z,13.18
2022-09-17T19:49:11.067Z,13.05
2022-09-17T19:51:42.655Z,13.02
2022-09-17T19:54:11.651Z,13.06
2022-09-17T19:56:40.076Z,13.08
2022-09-17T19:59:08.869Z,13.12
2022-09-17T20:01:39.585Z,13.17
2022-09-17T20:04:08.373Z,13.07
2022-09-17T20:06:39.493Z,13.12
2022-09-17T20:09:07.917Z,13.15
2022-09-17T20:11:41.343Z,13.20
2022-09-17T20:14:11.043Z,13.21
2022-09-17T20:16:40.786Z,13.23
2022-09-17T20:19:13.975Z,13.24
2022-09-17T20:21:42.191Z,13.29
2022-09-17T20:24:10.457Z,13.28
2022-09-17T20:26:39.076Z,13.27
2022-09-17T20:29:07.186Z,13.19
2022-09-17T20:31:35.669Z,13.21
2022-09-17T20:34:06.051Z,13.21
2022-09-17T20:36:37.213Z,13.24
2022-09-17T20:39:13.253Z,13.28
2022-09-17T20:41:43.245Z,13.32
2022-09-17T20:44:11.933Z,13.24
2022-09-17T20:46:40.348Z,13.27
2022-09-17T20:49:08.506Z,13.26
2022-09-17T20:51:36.568Z,13.26
2022-09-17T20:54:07.693Z,13.18
2022-09-17T20:56:35.887Z,13.18
2022-09-17T20:59:17.942Z,13.23
2022-09-17T21:01:49.641Z,13.25
2022-09-17T21:04:22.167Z,13.24
2022-09-17T21:06:54.284Z,13.22
2022-09-17T21:09:22.406Z,13.16
2022-09-17T21:11:50.528Z,13.07
2022-09-17T21:14:20.723Z,13.06
2022-09-17T21:16:49.175Z,13.01
2022-09-17T21:19:17.942Z,12.91
2022-09-17T21:21:51.890Z,12.90
2022-09-17T21:24:20.272Z,12.79
2022-09-17T21:26:54.349Z,12.91
2022-09-17T21:29:22.516Z,12.92
2022-09-17T21:31:50.725Z,12.92
2022-09-17T21:34:19.915Z,12.90
2022-09-17T21:36:49.890Z,12.86
2022-09-17T21:39:18.766Z,12.86
2022-09-17T21:41:48.241Z,12.83
2022-09-17T21:44:16.368Z,12.84
2022-09-17T21:46:44.496Z,12.81
2022-09-17T21:49:14.772Z,12.81
2022-09-17T21:51:43.208Z,12.80
2022-09-17T21:54:18.035Z,12.75
2022-09-17T21:56:46.844Z,12.78
2022-09-17T21:59:16.751Z,12.82
2022-09-17T22:01:47.442Z,12.82
2022-09-17T22:04:18.342Z,12.82
2022-09-17T22:06:49.234Z,12.76
2022-09-17T22:09:24.998Z,12.79
2022-09-17T22:11:53.773Z,12.76
2022-09-17T22:14:24.278Z,12.80
2022-09-17T22:16:55.068Z,12.80
2022-09-17T22:19:25.125Z,12.78
2022-09-17T22:21:56.713Z,12.77
2022-09-17T22:24:26.279Z,12.74
2022-09-17T22:26:58.185Z,12.72
2022-09-17T22:29:32.694Z,12.71
2022-09-17T22:32:00.874Z,12.68
2022-09-17T22:34:29.881Z,12.66
2022-09-17T22:37:00.166Z,12.59
2022-09-17T22:39:29.743Z,12.58
2022-09-17T22:41:58.627Z,12.58
2022-09-17T22:44:26.794Z,12.59
2022-09-17T22:46:54.959Z,12.58
2022-09-17T22:49:23.114Z,12.59
2022-09-17T22:51:51.127Z,12.58
2022-09-17T22:54:19.813Z,12.60
2022-09-17T22:56:49.135Z,12.63
2022-09-17T22:59:18.432Z,12.65
2022-09-17T23:01:47.626Z,12.72
2022-09-17T23:04:15.969Z,12.74
2022-09-17T23:06:43.972Z,12.73
2022-09-17T23:09:14.013Z,12.73
2022-09-17T23:11:42.452Z,12.81
2022-09-17T23:14:12.928Z,12.74
2022-09-17T23:16:48.967Z,12.72
2022-09-17T23:19:19.344Z,12.71
2022-09-17T23:21:47.486Z,12.73
2022-09-17T23:24:20.388Z,12.78
2022-09-17T23:26:49.437Z,12.79
2022-09-17T23:29:18.278Z,12.80
2022-09-17T23:31:46.447Z,12.76
2022-09-17T23:34:14.831Z,12.75
2022-09-17T23:36:42.927Z,12.72
2022-09-17T23:39:12.547Z,12.70
2022-09-17T23:41:44.853Z,12.71
2022-09-17T23:44:15.783Z,12.66
2022-09-17T23:46:48.644Z,12.69
2022-09-17T23:49:16.903Z,12.65
2022-09-17T23:51:45.548Z,12.64
2022-09-17T23:54:13.877Z,12.61
2022-09-17T23:56:42.210Z,12.53
2022-09-17T23:59:11.759Z,12.53
